sensor_id;sensor_type;location;lat;lon;timestamp;temperature;humidity
18103;DHT22;9178;51.120;6.192;2023-11-21T00:02:26;7.00;99.90
18103;DHT22;9178;51.120;6.192;2023-11-21T00:04:55;7.00;99.90
18103;DHT22;9178;51.120;6.192;2023-11-21T00:07:22;7.00;99.90
18103;DHT22;9178;51.120;6.192;2023-11-21T00:09:50;7.00;99.90
18103;DHT22;9178;51.120;6.192;2023-11-21T00:12:17;7.00;99.90
18103;DHT22;9178;51.120;6.192;2023-11-21T00:14:44;7.00;99.90
18103;DHT22;9178;51.120;6.192;2023-11-21T00:17:10;7.10;99.90
18103;DHT22;9178;51.120;6.192;2023-11-21T00:19:39;7.10;99.90
18103;DHT22;9178;51.120;6.192;2023-11-21T00:22:09;7.10;99.90
18103;DHT22;9178;51.120;6.192;2023-11-21T00:24:36;7.10;99.90
18103;DHT22;9178;51.120;6.192;2023-11-21T00:27:04;7.20;99.90
18103;DHT22;9178;51.120;6.192;2023-11-21T00:29:34;7.20;99.90
18103;DHT22;9178;51.120;6.192;2023-11-21T00:32:01;7.20;99.90
18103;DHT22;9178;51.120;6.192;2023-11-21T00:34:28;7.20;99.90
18103;DHT22;9178;51.120;6.192;2023-11-21T00:36:55;7.20;99.90
18103;DHT22;9178;51.120;6.192;2023-11-21T00:39:24;7.20;99.90
18103;DHT22;9178;51.120;6.192;2023-11-21T00:41:54;7.20;99.90
18103;DHT22;9178;51.120;6.192;2023-11-21T00:44:21;7.20;99.90
18103;DHT22;9178;51.120;6.192;2023-11-21T00:46:48;7.30;99.90
18103;DHT22;9178;51.120;6.192;2023-11-21T00:49:16;7.30;99.90
18103;DHT22;9178;51.120;6.192;2023-11-21T00:51:46;7.30;99.90
18103;DHT22;9178;51.120;6.192;2023-11-21T00:54:13;7.30;99.90
18103;DHT22;9178;51.120;6.192;2023-11-21T00:56:44;7.20;99.90
18103;DHT22;9178;51.120;6.192;2023-11-21T00:59:13;7.30;99.90
18103;DHT22;9178;51.120;6.192;2023-11-21T01:01:42;7.20;99.90
18103;DHT22;9178;51.120;6.192;2023-11-21T01:04:11;7.20;99.90
18103;DHT22;9178;51.120;6.192;2023-11-21T01:06:38;7.30;99.90
18103;DHT22;9178;51.120;6.192;2023-11-21T01:09:05;7.30;99.90
18103;DHT22;9178;51.120;6.192;2023-11-21T01:11:34;7.30;99.90
18103;DHT22;9178;51.120;6.192;2023-11-21T01:14:04;7.30;99.90
18103;DHT22;9178;51.120;6.192;2023-11-21T01:16:32;7.30;99.90
18103;DHT22;9178;51.120;6.192;2023-11-21T01:18:59;7.30;99.90
18103;DHT22;9178;51.120;6.192;2023-11-21T01:21:29;7.30;99.90
18103;DHT22;9178;51.120;6.192;2023-11-21T01:23:57;7.30;99.90
18103;DHT22;9178;51.120;6.192;2023-11-21T01:26:23;7.40;99.90
18103;DHT22;9178;51.120;6.192;2023-11-21T01:28:50;7.40;99.90
18103;DHT22;9178;51.120;6.192;2023-11-21T01:31:19;7.40;99.90
18103;DHT22;9178;51.120;6.192;2023-11-21T01:33:46;7.40;99.90
18103;DHT22;9178;51.120;6.192;2023-11-21T01:36:14;7.40;99.90
18103;DHT22;9178;51.120;6.192;2023-11-21T01:38:41;7.40;99.90
18103;DHT22;9178;51.120;6.192;2023-11-21T01:41:17;7.40;99.90
18103;DHT22;9178;51.120;6.192;2023-11-21T01:43:46;7.40;99.90
18103;DHT22;9178;51.120;6.192;2023-11-21T01:46:14;7.40;99.90
18103;DHT22;9178;51.120;6.192;2023-11-21T01:48:42;7.40;99.90
18103;DHT22;9178;51.120;6.192;2023-11-21T01:51:10;7.50;99.90
18103;DHT22;9178;51.120;6.192;2023-11-21T01:53:37;7.50;99.90
18103;DHT22;9178;51.120;6.192;2023-11-21T01:56:06;7.50;99.90
18103;DHT22;9178;51.120;6.192;2023-11-21T01:58:33;7.50;99.90
18103;DHT22;9178;51.120;6.192;2023-11-21T02:01:01;7.50;99.90
18103;DHT22;9178;51.120;6.192;2023-11-21T02:03:28;7.50;99.90
18103;DHT22;9178;51.120;6.192;2023-11-21T02:05:58;7.50;99.90
18103;DHT22;9178;51.120;6.192;2023-11-21T02:08:25;7.50;99.90
18103;DHT22;9178;51.120;6.192;2023-11-21T02:10:52;7.50;99.90
18103;DHT22;9178;51.120;6.192;2023-11-21T02:13:19;7.50;99.90
18103;DHT22;9178;51.120;6.192;2023-11-21T02:15:46;7.50;99.90
18103;DHT22;9178;51.120;6.192;2023-11-21T02:18:15;7.50;99.90
18103;DHT22;9178;51.120;6.192;2023-11-21T02:20:43;7.50;99.90
18103;DHT22;9178;51.120;6.192;2023-11-21T02:23:13;7.50;99.90
18103;DHT22;9178;51.120;6.192;2023-11-21T02:25:40;7.50;99.90
18103;DHT22;9178;51.120;6.192;2023-11-21T02:28:11;7.50;99.90
18103;DHT22;9178;51.120;6.192;2023-11-21T02:30:51;7.50;99.90
18103;DHT22;9178;51.120;6.192;2023-11-21T02:33:22;7.50;99.90
18103;DHT22;9178;51.120;6.192;2023-11-21T02:35:49;7.50;99.90
18103;DHT22;9178;51.120;6.192;2023-11-21T02:38:20;7.50;99.90
18103;DHT22;9178;51.120;6.192;2023-11-21T02:40:47;7.50;99.90
18103;DHT22;9178;51.120;6.192;2023-11-21T02:43:18;7.60;99.90
18103;DHT22;9178;51.120;6.192;2023-11-21T02:45:46;7.50;99.90
18103;DHT22;9178;51.120;6.192;2023-11-21T02:48:13;7.50;99.90
18103;DHT22;9178;51.120;6.192;2023-11-21T02:50:40;7.60;99.90
18103;DHT22;9178;51.120;6.192;2023-11-21T02:53:08;7.60;99.90
18103;DHT22;9178;51.120;6.192;2023-11-21T02:55:37;7.60;99.90
18103;DHT22;9178;51.120;6.192;2023-11-21T02:58:04;7.60;99.90
18103;DHT22;9178;51.120;6.192;2023-11-21T03:00:31;7.60;99.90
18103;DHT22;9178;51.120;6.192;2023-11-21T03:02:58;7.60;99.90
18103;DHT22;9178;51.120;6.192;2023-11-21T03:05:26;7.60;99.90
18103;DHT22;9178;51.120;6.192;2023-11-21T03:07:54;7.60;99.90
18103;DHT22;9178;51.120;6.192;2023-11-21T03:10:25;7.60;99.90
18103;DHT22;9178;51.120;6.192;2023-11-21T03:12:54;7.60;99.90
18103;DHT22;9178;51.120;6.192;2023-11-21T03:15:28;7.60;99.90
18103;DHT22;9178;51.120;6.192;2023-11-21T03:18:03;7.60;99.90
18103;DHT22;9178;51.120;6.192;2023-11-21T03:20:31;7.60;99.90
18103;DHT22;9178;51.120;6.192;2023-11-21T03:22:58;7.60;99.90
18103;DHT22;9178;51.120;6.192;2023-11-21T03:25:25;7.70;99.90
18103;DHT22;9178;51.120;6.192;2023-11-21T03:27:56;7.70;99.90
18103;DHT22;9178;51.120;6.192;2023-11-21T03:30:23;7.70;99.90
18103;DHT22;9178;51.120;6.192;2023-11-21T03:32:51;7.70;99.90
18103;DHT22;9178;51.120;6.192;2023-11-21T03:35:18;7.70;99.90
18103;DHT22;9178;51.120;6.192;2023-11-21T03:37:49;7.80;99.90
18103;DHT22;9178;51.120;6.192;2023-11-21T03:40:17;7.80;99.90
18103;DHT22;9178;51.120;6.192;2023-11-21T03:42:44;7.80;99.90
18103;DHT22;9178;51.120;6.192;2023-11-21T03:45:14;7.80;99.90
18103;DHT22;9178;51.120;6.192;2023-11-21T03:47:42;7.80;99.90
18103;DHT22;9178;51.120;6.192;2023-11-21T03:50:09;7.80;99.90
18103;DHT22;9178;51.120;6.192;2023-11-21T03:52:37;7.90;99.90
18103;DHT22;9178;51.120;6.192;2023-11-21T03:55:08;7.80;99.90
18103;DHT22;9178;51.120;6.192;2023-11-21T03:57:36;7.90;99.90
18103;DHT22;9178;51.120;6.192;2023-11-21T04:00:03;7.90;99.90
18103;DHT22;9178;51.120;6.192;2023-11-21T04:02:35;7.90;99.90
18103;DHT22;9178;51.120;6.192;2023-11-21T04:05:05;7.90;99.90
18103;DHT22;9178;51.120;6.192;2023-11-21T04:07:33;7.90;99.90
18103;DHT22;9178;51.120;6.192;2023-11-21T04:09:59;7.90;99.90
18103;DHT22;9178;51.120;6.192;2023-11-21T04:12:26;8.00;99.90
18103;DHT22;9178;51.120;6.192;2023-11-21T04:14:53;8.00;99.90
18103;DHT22;9178;51.120;6.192;2023-11-21T04:17:29;8.00;99.90
18103;DHT22;9178;51.120;6.192;2023-11-21T04:19:59;8.00;99.90
18103;DHT22;9178;51.120;6.192;2023-11-21T04:22:26;8.00;99.90
18103;DHT22;9178;51.120;6.192;2023-11-21T04:24:54;8.00;99.90
18103;DHT22;9178;51.120;6.192;2023-11-21T04:27:21;8.00;99.90
18103;DHT22;9178;51.120;6.192;2023-11-21T04:29:48;8.00;99.90
18103;DHT22;9178;51.120;6.192;2023-11-21T04:32:15;8.00;99.90
18103;DHT22;9178;51.120;6.192;2023-11-21T04:34:44;8.00;99.90
18103;DHT22;9178;51.120;6.192;2023-11-21T04:37:12;8.00;99.90
18103;DHT22;9178;51.120;6.192;2023-11-21T04:39:39;8.10;99.90
18103;DHT22;9178;51.120;6.192;2023-11-21T04:42:06;8.00;99.90
18103;DHT22;9178;51.120;6.192;2023-11-21T04:44:33;8.10;99.90
18103;DHT22;9178;51.120;6.192;2023-11-21T04:47:00;8.10;99.90
18103;DHT22;9178;51.120;6.192;2023-11-21T04:49:30;8.10;99.90
18103;DHT22;9178;51.120;6.192;2023-11-21T04:51:57;8.10;99.90
18103;DHT22;9178;51.120;6.192;2023-11-21T04:54:26;8.10;99.90
18103;DHT22;9178;51.120;6.192;2023-11-21T04:56:53;8.10;99.90
18103;DHT22;9178;51.120;6.192;2023-11-21T04:59:22;8.10;99.90
18103;DHT22;9178;51.120;6.192;2023-11-21T05:01:55;8.10;99.90
18103;DHT22;9178;51.120;6.192;2023-11-21T05:04:24;8.10;99.90
18103;DHT22;9178;51.120;6.192;2023-11-21T05:06:54;8.10;99.90
18103;DHT22;9178;51.120;6.192;2023-11-21T05:09:22;8.10;99.90
18103;DHT22;9178;51.120;6.192;2023-11-21T05:11:51;8.20;99.90
18103;DHT22;9178;51.120;6.192;2023-11-21T05:14:19;8.10;99.90
18103;DHT22;9178;51.120;6.192;2023-11-21T05:16:50;8.20;99.90
18103;DHT22;9178;51.120;6.192;2023-11-21T05:19:20;8.20;99.90
18103;DHT22;9178;51.120;6.192;2023-11-21T05:21:47;8.20;99.90
18103;DHT22;9178;51.120;6.192;2023-11-21T05:24:14;8.20;99.90
18103;DHT22;9178;51.120;6.192;2023-11-21T05:26:43;8.20;99.90
18103;DHT22;9178;51.120;6.192;2023-11-21T05:29:11;8.20;99.90
18103;DHT22;9178;51.120;6.192;2023-11-21T05:31:41;8.20;99.90
18103;DHT22;9178;51.120;6.192;2023-11-21T05:34:08;8.20;99.90
18103;DHT22;9178;51.120;6.192;2023-11-21T05:36:35;8.20;99.90
18103;DHT22;9178;51.120;6.192;2023-11-21T05:39:04;8.20;99.90
18103;DHT22;9178;51.120;6.192;2023-11-21T05:41:31;8.20;99.90
18103;DHT22;9178;51.120;6.192;2023-11-21T05:43:59;8.20;99.90
18103;DHT22;9178;51.120;6.192;2023-11-21T05:46:29;8.20;99.90
18103;DHT22;9178;51.120;6.192;2023-11-21T05:48:56;8.20;99.90
18103;DHT22;9178;51.120;6.192;2023-11-21T05:51:23;8.20;99.90
18103;DHT22;9178;51.120;6.192;2023-11-21T05:53:50;8.20;99.90
18103;DHT22;9178;51.120;6.192;2023-11-21T05:56:20;8.20;99.90
18103;DHT22;9178;51.120;6.192;2023-11-21T05:58:51;8.20;99.90
18103;DHT22;9178;51.120;6.192;2023-11-21T06:01:19;8.20;99.90
18103;DHT22;9178;51.120;6.192;2023-11-21T06:03:50;8.20;99.90
18103;DHT22;9178;51.120;6.192;2023-11-21T06:06:20;8.20;99.90
18103;DHT22;9178;51.120;6.192;2023-11-21T06:08:48;8.20;99.90
18103;DHT22;9178;51.120;6.192;2023-11-21T06:11:15;8.20;99.90
18103;DHT22;9178;51.120;6.192;2023-11-21T06:13:42;8.20;99.90
18103;DHT22;9178;51.120;6.192;2023-11-21T06:16:09;8.20;99.90
18103;DHT22;9178;51.120;6.192;2023-11-21T06:18:38;8.20;99.90
18103;DHT22;9178;51.120;6.192;2023-11-21T06:21:09;8.20;99.90
18103;DHT22;9178;51.120;6.192;2023-11-21T06:23:36;8.20;99.90
18103;DHT22;9178;51.120;6.192;2023-11-21T06:26:03;8.20;99.90
18103;DHT22;9178;51.120;6.192;2023-11-21T06:28:31;8.20;99.90
18103;DHT22;9178;51.120;6.192;2023-11-21T06:31:00;8.20;99.90
18103;DHT22;9178;51.120;6.192;2023-11-21T06:33:30;8.20;99.90
18103;DHT22;9178;51.120;6.192;2023-11-21T06:35:58;8.20;99.90
18103;DHT22;9178;51.120;6.192;2023-11-21T06:38:29;8.20;99.90
18103;DHT22;9178;51.120;6.192;2023-11-21T06:40:57;8.20;99.90
18103;DHT22;9178;51.120;6.192;2023-11-21T06:43:30;8.30;99.90
18103;DHT22;9178;51.120;6.192;2023-11-21T06:45:58;8.30;99.90
18103;DHT22;9178;51.120;6.192;2023-11-21T06:48:25;8.20;99.90
18103;DHT22;9178;51.120;6.192;2023-11-21T06:50:58;8.20;99.90
18103;DHT22;9178;51.120;6.192;2023-11-21T06:53:29;8.30;99.90
18103;DHT22;9178;51.120;6.192;2023-11-21T06:55:57;8.30;99.90
18103;DHT22;9178;51.120;6.192;2023-11-21T06:58:27;8.30;99.90
18103;DHT22;9178;51.120;6.192;2023-11-21T07:01:02;8.30;99.90
18103;DHT22;9178;51.120;6.192;2023-11-21T07:03:31;8.30;99.90
18103;DHT22;9178;51.120;6.192;2023-11-21T07:06:02;8.30;99.90
18103;DHT22;9178;51.120;6.192;2023-11-21T07:08:30;8.30;99.90
18103;DHT22;9178;51.120;6.192;2023-11-21T07:10:57;8.30;99.90
18103;DHT22;9178;51.120;6.192;2023-11-21T07:13:24;8.30;99.90
18103;DHT22;9178;51.120;6.192;2023-11-21T07:15:51;8.30;99.90
18103;DHT22;9178;51.120;6.192;2023-11-21T07:18:20;8.30;99.90
18103;DHT22;9178;51.120;6.192;2023-11-21T07:20:47;8.30;99.90
18103;DHT22;9178;51.120;6.192;2023-11-21T07:23:14;8.40;99.90
18103;DHT22;9178;51.120;6.192;2023-11-21T07:25:45;8.40;99.90
18103;DHT22;9178;51.120;6.192;2023-11-21T07:28:12;8.40;99.90
18103;DHT22;9178;51.120;6.192;2023-11-21T07:30:40;8.40;99.90
18103;DHT22;9178;51.120;6.192;2023-11-21T07:33:07;8.40;99.90
18103;DHT22;9178;51.120;6.192;2023-11-21T07:35:36;8.40;99.90
18103;DHT22;9178;51.120;6.192;2023-11-21T07:38:03;8.50;99.90
18103;DHT22;9178;51.120;6.192;2023-11-21T07:40:34;8.50;99.90
18103;DHT22;9178;51.120;6.192;2023-11-21T07:43:03;8.50;99.90
18103;DHT22;9178;51.120;6.192;2023-11-21T07:45:31;8.50;99.90
18103;DHT22;9178;51.120;6.192;2023-11-21T07:47:58;8.50;99.90
18103;DHT22;9178;51.120;6.192;2023-11-21T07:50:26;8.50;99.90
18103;DHT22;9178;51.120;6.192;2023-11-21T07:52:53;8.50;99.90
18103;DHT22;9178;51.120;6.192;2023-11-21T07:55:24;8.60;99.90
18103;DHT22;9178;51.120;6.192;2023-11-21T07:57:52;8.60;99.90
18103;DHT22;9178;51.120;6.192;2023-11-21T08:00:21;8.60;99.90
18103;DHT22;9178;51.120;6.192;2023-11-21T08:02:50;8.60;99.90
18103;DHT22;9178;51.120;6.192;2023-11-21T08:05:20;8.60;99.90
18103;DHT22;9178;51.120;6.192;2023-11-21T08:07:48;8.60;99.90
18103;DHT22;9178;51.120;6.192;2023-11-21T08:10:15;8.60;99.90
18103;DHT22;9178;51.120;6.192;2023-11-21T08:12:43;8.70;99.90
18103;DHT22;9178;51.120;6.192;2023-11-21T08:15:17;8.60;99.90
18103;DHT22;9178;51.120;6.192;2023-11-21T08:17:46;8.70;99.90
18103;DHT22;9178;51.120;6.192;2023-11-21T08:20:14;8.70;99.90
18103;DHT22;9178;51.120;6.192;2023-11-21T08:22:42;8.70;99.90
18103;DHT22;9178;51.120;6.192;2023-11-21T08:25:10;8.70;99.90
18103;DHT22;9178;51.120;6.192;2023-11-21T08:27:40;8.70;99.90
18103;DHT22;9178;51.120;6.192;2023-11-21T08:30:11;8.80;99.90
18103;DHT22;9178;51.120;6.192;2023-11-21T08:32:50;8.80;99.90
18103;DHT22;9178;51.120;6.192;2023-11-21T08:35:17;8.80;99.90
18103;DHT22;9178;51.120;6.192;2023-11-21T08:37:45;8.80;99.90
18103;DHT22;9178;51.120;6.192;2023-11-21T08:40:13;8.80;99.90
18103;DHT22;9178;51.120;6.192;2023-11-21T08:42:42;8.80;99.90
18103;DHT22;9178;51.120;6.192;2023-11-21T08:45:11;8.80;99.90
18103;DHT22;9178;51.120;6.192;2023-11-21T08:47:44;8.90;99.90
18103;DHT22;9178;51.120;6.192;2023-11-21T08:50:13;8.90;99.90
18103;DHT22;9178;51.120;6.192;2023-11-21T08:52:44;8.90;99.90
18103;DHT22;9178;51.120;6.192;2023-11-21T08:55:15;8.90;99.90
18103;DHT22;9178;51.120;6.192;2023-11-21T08:57:45;8.90;99.90
18103;DHT22;9178;51.120;6.192;2023-11-21T09:00:13;8.90;99.90
18103;DHT22;9178;51.120;6.192;2023-11-21T09:02:43;8.90;99.90
18103;DHT22;9178;51.120;6.192;2023-11-21T09:05:14;9.00;99.90
18103;DHT22;9178;51.120;6.192;2023-11-21T09:07:44;9.00;99.90
18103;DHT22;9178;51.120;6.192;2023-11-21T09:10:14;9.00;99.90
18103;DHT22;9178;51.120;6.192;2023-11-21T09:12:41;9.10;99.90
18103;DHT22;9178;51.120;6.192;2023-11-21T09:15:10;9.10;99.90
18103;DHT22;9178;51.120;6.192;2023-11-21T09:17:40;9.10;99.90
18103;DHT22;9178;51.120;6.192;2023-11-21T09:20:08;9.10;99.90
18103;DHT22;9178;51.120;6.192;2023-11-21T09:22:38;9.20;99.90
18103;DHT22;9178;51.120;6.192;2023-11-21T09:25:05;9.20;99.90
18103;DHT22;9178;51.120;6.192;2023-11-21T09:27:34;9.20;99.90
18103;DHT22;9178;51.120;6.192;2023-11-21T09:30:01;9.30;99.90
18103;DHT22;9178;51.120;6.192;2023-11-21T09:32:31;9.30;99.90
18103;DHT22;9178;51.120;6.192;2023-11-21T09:34:58;9.30;99.90
18103;DHT22;9178;51.120;6.192;2023-11-21T09:37:27;9.40;99.90
18103;DHT22;9178;51.120;6.192;2023-11-21T09:39:56;9.40;99.90
18103;DHT22;9178;51.120;6.192;2023-11-21T09:42:35;9.50;99.90
18103;DHT22;9178;51.120;6.192;2023-11-21T09:45:05;9.50;99.90
18103;DHT22;9178;51.120;6.192;2023-11-21T09:47:38;9.60;99.90
18103;DHT22;9178;51.120;6.192;2023-11-21T09:50:06;9.60;99.90
18103;DHT22;9178;51.120;6.192;2023-11-21T09:52:41;9.70;99.90
18103;DHT22;9178;51.120;6.192;2023-11-21T09:55:13;9.70;99.90
18103;DHT22;9178;51.120;6.192;2023-11-21T09:57:41;9.80;99.90
18103;DHT22;9178;51.120;6.192;2023-11-21T10:00:11;9.80;99.90
18103;DHT22;9178;51.120;6.192;2023-11-21T10:02:43;9.70;99.90
18103;DHT22;9178;51.120;6.192;2023-11-21T10:05:16;9.80;99.90
18103;DHT22;9178;51.120;6.192;2023-11-21T10:07:46;9.70;99.90
18103;DHT22;9178;51.120;6.192;2023-11-21T10:10:18;9.70;99.90
18103;DHT22;9178;51.120;6.192;2023-11-21T10:12:49;9.70;99.90
18103;DHT22;9178;51.120;6.192;2023-11-21T10:15:21;9.70;99.90
18103;DHT22;9178;51.120;6.192;2023-11-21T10:17:55;9.70;99.90
18103;DHT22;9178;51.120;6.192;2023-11-21T10:20:23;9.70;99.90
18103;DHT22;9178;51.120;6.192;2023-11-21T10:22:53;9.70;99.90
18103;DHT22;9178;51.120;6.192;2023-11-21T10:25:21;9.80;99.90
18103;DHT22;9178;51.120;6.192;2023-11-21T10:27:49;9.90;99.90
18103;DHT22;9178;51.120;6.192;2023-11-21T10:30:17;9.90;99.90
18103;DHT22;9178;51.120;6.192;2023-11-21T10:32:47;10.00;99.90
18103;DHT22;9178;51.120;6.192;2023-11-21T10:35:17;10.00;99.90
18103;DHT22;9178;51.120;6.192;2023-11-21T10:37:44;10.00;99.90
18103;DHT22;9178;51.120;6.192;2023-11-21T10:40:14;10.10;99.90
18103;DHT22;9178;51.120;6.192;2023-11-21T10:42:44;10.10;99.90
18103;DHT22;9178;51.120;6.192;2023-11-21T10:45:15;10.10;99.90
18103;DHT22;9178;51.120;6.192;2023-11-21T10:47:44;10.20;99.90
18103;DHT22;9178;51.120;6.192;2023-11-21T10:50:11;10.30;99.90
18103;DHT22;9178;51.120;6.192;2023-11-21T10:52:41;10.30;99.90
18103;DHT22;9178;51.120;6.192;2023-11-21T10:55:21;10.30;99.90
18103;DHT22;9178;51.120;6.192;2023-11-21T10:57:53;10.40;99.90
18103;DHT22;9178;51.120;6.192;2023-11-21T11:00:21;10.40;99.90
18103;DHT22;9178;51.120;6.192;2023-11-21T11:02:52;10.40;99.90
18103;DHT22;9178;51.120;6.192;2023-11-21T11:05:22;10.40;99.90
18103;DHT22;9178;51.120;6.192;2023-11-21T11:07:58;10.50;99.90
18103;DHT22;9178;51.120;6.192;2023-11-21T11:10:27;10.50;99.90
18103;DHT22;9178;51.120;6.192;2023-11-21T11:12:57;10.40;99.90
18103;DHT22;9178;51.120;6.192;2023-11-21T11:15:25;10.50;99.90
18103;DHT22;9178;51.120;6.192;2023-11-21T11:17:55;10.50;99.90
18103;DHT22;9178;51.120;6.192;2023-11-21T11:20:25;10.50;99.90
18103;DHT22;9178;51.120;6.192;2023-11-21T11:23:12;10.50;99.90
18103;DHT22;9178;51.120;6.192;2023-11-21T11:25:59;10.60;99.90
18103;DHT22;9178;51.120;6.192;2023-11-21T11:28:41;10.60;99.90
18103;DHT22;9178;51.120;6.192;2023-11-21T11:31:24;10.70;99.90
18103;DHT22;9178;51.120;6.192;2023-11-21T11:34:04;10.80;99.90
18103;DHT22;9178;51.120;6.192;2023-11-21T11:36:38;10.80;99.90
18103;DHT22;9178;51.120;6.192;2023-11-21T11:39:29;10.80;99.90
18103;DHT22;9178;51.120;6.192;2023-11-21T11:42:06;10.90;99.90
18103;DHT22;9178;51.120;6.192;2023-11-21T11:44:49;10.90;99.90
18103;DHT22;9178;51.120;6.192;2023-11-21T11:47:31;11.00;99.90
18103;DHT22;9178;51.120;6.192;2023-11-21T11:50:07;11.10;99.90
18103;DHT22;9178;51.120;6.192;2023-11-21T11:52:40;11.20;99.90
18103;DHT22;9178;51.120;6.192;2023-11-21T11:55:08;11.20;99.90
18103;DHT22;9178;51.120;6.192;2023-11-21T11:57:39;11.30;99.90
18103;DHT22;9178;51.120;6.192;2023-11-21T12:00:15;11.30;99.90
18103;DHT22;9178;51.120;6.192;2023-11-21T12:02:50;11.30;99.90
18103;DHT22;9178;51.120;6.192;2023-11-21T12:05:19;11.40;99.90
18103;DHT22;9178;51.120;6.192;2023-11-21T12:07:47;11.40;99.90
18103;DHT22;9178;51.120;6.192;2023-11-21T12:10:16;11.50;99.90
18103;DHT22;9178;51.120;6.192;2023-11-21T12:12:47;11.40;99.90
18103;DHT22;9178;51.120;6.192;2023-11-21T12:15:17;11.40;99.90
18103;DHT22;9178;51.120;6.192;2023-11-21T12:17:46;11.50;99.90
18103;DHT22;9178;51.120;6.192;2023-11-21T12:20:16;11.50;99.90
18103;DHT22;9178;51.120;6.192;2023-11-21T12:22:50;11.50;99.90
18103;DHT22;9178;51.120;6.192;2023-11-21T12:25:26;11.40;99.90
18103;DHT22;9178;51.120;6.192;2023-11-21T12:27:55;11.50;99.90
18103;DHT22;9178;51.120;6.192;2023-11-21T12:30:26;11.40;99.90
18103;DHT22;9178;51.120;6.192;2023-11-21T12:32:57;11.40;99.90
18103;DHT22;9178;51.120;6.192;2023-11-21T12:35:26;11.40;99.90
18103;DHT22;9178;51.120;6.192;2023-11-21T12:38:02;11.30;99.90
18103;DHT22;9178;51.120;6.192;2023-11-21T12:40:34;11.30;99.90
18103;DHT22;9178;51.120;6.192;2023-11-21T12:43:02;11.30;99.90
18103;DHT22;9178;51.120;6.192;2023-11-21T12:45:31;11.30;99.90
18103;DHT22;9178;51.120;6.192;2023-11-21T12:48:08;11.30;99.90
18103;DHT22;9178;51.120;6.192;2023-11-21T12:50:38;11.30;99.90
18103;DHT22;9178;51.120;6.192;2023-11-21T12:53:11;11.30;99.90
18103;DHT22;9178;51.120;6.192;2023-11-21T12:55:41;11.30;99.90
18103;DHT22;9178;51.120;6.192;2023-11-21T12:58:10;11.30;99.90
18103;DHT22;9178;51.120;6.192;2023-11-21T13:00:51;11.30;99.90
18103;DHT22;9178;51.120;6.192;2023-11-21T13:03:21;11.30;99.90
18103;DHT22;9178;51.120;6.192;2023-11-21T13:05:51;11.30;99.90
18103;DHT22;9178;51.120;6.192;2023-11-21T13:08:29;11.30;99.90
18103;DHT22;9178;51.120;6.192;2023-11-21T13:11:09;11.30;99.90
18103;DHT22;9178;51.120;6.192;2023-11-21T13:13:42;11.20;99.90
18103;DHT22;9178;51.120;6.192;2023-11-21T13:16:14;11.10;99.90
18103;DHT22;9178;51.120;6.192;2023-11-21T13:18:48;11.20;99.90
18103;DHT22;9178;51.120;6.192;2023-11-21T13:21:16;11.20;99.90
18103;DHT22;9178;51.120;6.192;2023-11-21T13:23:49;11.10;99.90
18103;DHT22;9178;51.120;6.192;2023-11-21T13:26:18;11.00;99.90
18103;DHT22;9178;51.120;6.192;2023-11-21T13:28:49;11.00;99.90
18103;DHT22;9178;51.120;6.192;2023-11-21T13:31:18;11.00;99.90
18103;DHT22;9178;51.120;6.192;2023-11-21T13:33:58;11.00;99.90
18103;DHT22;9178;51.120;6.192;2023-11-21T13:36:30;11.00;99.90
18103;DHT22;9178;51.120;6.192;2023-11-21T13:39:01;11.00;99.90
18103;DHT22;9178;51.120;6.192;2023-11-21T13:41:33;11.00;99.90
18103;DHT22;9178;51.120;6.192;2023-11-21T13:44:00;11.00;99.90
18103;DHT22;9178;51.120;6.192;2023-11-21T13:46:41;10.90;99.90
18103;DHT22;9178;51.120;6.192;2023-11-21T13:49:08;10.90;99.90
18103;DHT22;9178;51.120;6.192;2023-11-21T13:51:35;10.80;99.90
18103;DHT22;9178;51.120;6.192;2023-11-21T13:54:07;10.80;99.90
18103;DHT22;9178;51.120;6.192;2023-11-21T13:56:35;10.80;99.90
18103;DHT22;9178;51.120;6.192;2023-11-21T13:59:03;10.90;99.90
18103;DHT22;9178;51.120;6.192;2023-11-21T14:01:41;10.90;99.90
18103;DHT22;9178;51.120;6.192;2023-11-21T14:04:26;10.90;99.90
18103;DHT22;9178;51.120;6.192;2023-11-21T14:07:18;10.90;99.90
18103;DHT22;9178;51.120;6.192;2023-11-21T14:09:55;10.90;99.90
18103;DHT22;9178;51.120;6.192;2023-11-21T14:12:24;10.90;99.90
18103;DHT22;9178;51.120;6.192;2023-11-21T14:14:51;10.90;99.90
18103;DHT22;9178;51.120;6.192;2023-11-21T14:17:19;10.90;99.90
18103;DHT22;9178;51.120;6.192;2023-11-21T14:19:48;10.90;99.90
18103;DHT22;9178;51.120;6.192;2023-11-21T14:22:16;10.90;99.90
18103;DHT22;9178;51.120;6.192;2023-11-21T14:24:43;11.00;99.90
18103;DHT22;9178;51.120;6.192;2023-11-21T14:27:12;11.00;99.90
18103;DHT22;9178;51.120;6.192;2023-11-21T14:29:41;10.90;99.90
18103;DHT22;9178;51.120;6.192;2023-11-21T14:32:10;11.00;99.90
18103;DHT22;9178;51.120;6.192;2023-11-21T14:34:42;11.00;99.90
18103;DHT22;9178;51.120;6.192;2023-11-21T14:37:13;11.00;99.90
18103;DHT22;9178;51.120;6.192;2023-11-21T14:39:41;11.00;99.90
18103;DHT22;9178;51.120;6.192;2023-11-21T14:42:13;11.00;99.90
18103;DHT22;9178;51.120;6.192;2023-11-21T14:44:50;10.90;99.90
18103;DHT22;9178;51.120;6.192;2023-11-21T14:47:17;10.90;99.90
18103;DHT22;9178;51.120;6.192;2023-11-21T14:49:52;10.80;99.90
18103;DHT22;9178;51.120;6.192;2023-11-21T14:52:19;10.80;99.90
18103;DHT22;9178;51.120;6.192;2023-11-21T14:55:01;10.80;99.90
18103;DHT22;9178;51.120;6.192;2023-11-21T14:57:51;10.80;99.90
18103;DHT22;9178;51.120;6.192;2023-11-21T15:00:19;10.80;99.90
18103;DHT22;9178;51.120;6.192;2023-11-21T15:03:12;10.80;99.90
18103;DHT22;9178;51.120;6.192;2023-11-21T15:06:05;10.80;99.90
18103;DHT22;9178;51.120;6.192;2023-11-21T15:08:48;10.70;99.90
18103;DHT22;9178;51.120;6.192;2023-11-21T15:11:19;10.70;99.90
18103;DHT22;9178;51.120;6.192;2023-11-21T15:13:48;10.60;99.90
18103;DHT22;9178;51.120;6.192;2023-11-21T15:16:24;10.60;99.90
18103;DHT22;9178;51.120;6.192;2023-11-21T15:18:52;10.60;99.90
18103;DHT22;9178;51.120;6.192;2023-11-21T15:21:23;10.60;99.90
18103;DHT22;9178;51.120;6.192;2023-11-21T15:23:52;10.50;99.90
18103;DHT22;9178;51.120;6.192;2023-11-21T15:26:22;10.50;99.90
18103;DHT22;9178;51.120;6.192;2023-11-21T15:28:53;10.50;99.90
18103;DHT22;9178;51.120;6.192;2023-11-21T15:31:24;10.50;99.90
18103;DHT22;9178;51.120;6.192;2023-11-21T15:33:51;10.40;99.90
18103;DHT22;9178;51.120;6.192;2023-11-21T15:36:29;10.40;99.90
18103;DHT22;9178;51.120;6.192;2023-11-21T15:39:02;10.30;99.90
18103;DHT22;9178;51.120;6.192;2023-11-21T15:41:32;10.30;99.90
18103;DHT22;9178;51.120;6.192;2023-11-21T15:44:04;10.30;99.90
18103;DHT22;9178;51.120;6.192;2023-11-21T15:46:35;10.20;99.90
18103;DHT22;9178;51.120;6.192;2023-11-21T15:49:03;10.20;99.90
18103;DHT22;9178;51.120;6.192;2023-11-21T15:51:43;10.20;99.90
18103;DHT22;9178;51.120;6.192;2023-11-21T15:54:19;10.20;99.90
18103;DHT22;9178;51.120;6.192;2023-11-21T15:56:52;10.10;99.90
18103;DHT22;9178;51.120;6.192;2023-11-21T15:59:22;10.10;99.90
18103;DHT22;9178;51.120;6.192;2023-11-21T16:01:50;10.10;99.90
18103;DHT22;9178;51.120;6.192;2023-11-21T16:04:17;10.10;99.90
18103;DHT22;9178;51.120;6.192;2023-11-21T16:06:46;10.10;99.90
18103;DHT22;9178;51.120;6.192;2023-11-21T16:09:24;10.00;99.90
18103;DHT22;9178;51.120;6.192;2023-11-21T16:11:56;10.00;99.90
18103;DHT22;9178;51.120;6.192;2023-11-21T16:14:30;9.90;99.90
18103;DHT22;9178;51.120;6.192;2023-11-21T16:17:05;9.90;99.90